Terminal Aerodrome Forecast
Issued by NWS

Home | Current Version | Previous Version | Text Only | Print | Product List | Glossary On
Versions: 1 2 3 4 5 6 7 8 9 10 11 12 13 14 15 16 17
309
FTAK31 PAJN 170543
TAFAKT
TAF
PAKT 170543Z 1706/1806 15011KT P6SM -SHRA OVC025
      TEMPO 1706/1710 15015G25KT 5SM SHRA BR OVC018
     FM171200 15007KT P6SM VCSH BKN025 OVC050
     FM171500 VRB04KT P6SM -SHRA SCT025 OVC045 WS020/09025KT
     FM172200 15011KT 6SM -RA BR FEW015 OVC030 WS020/10035KT
     FM180400 15015G25KT P6SM -RA OVC025 WS020/12035KT
      AMD LTD TO CLD VIS AND WIND 1706/1715=

USA.gov is the U.S. government's official web portal to all federal, state and local government web resources and services.